createdAt,value
2023-04-23T00:00:43.960Z,100315.90
2023-04-23T00:05:38.255Z,100314.79
2023-04-23T00:10:31.443Z,100311.17
2023-04-23T00:15:24.187Z,100309.42
2023-04-23T00:20:18.912Z,100306.58
2023-04-23T00:25:12.129Z,100301.98
2023-04-23T00:30:05.853Z,100304.03
2023-04-23T00:34:58.585Z,100301.84
2023-04-23T00:39:51.460Z,100301.59
2023-04-23T00:44:44.562Z,100298.30
2023-04-23T00:49:39.498Z,100295.18
2023-04-23T00:54:32.230Z,100298.59
2023-04-23T00:59:28.892Z,100301.29
2023-04-23T01:04:22.948Z,100295.21
2023-04-23T01:09:18.510Z,100294.70
2023-04-23T01:14:12.110Z,100297.31
2023-04-23T01:19:05.942Z,100299.90
2023-04-23T01:23:58.959Z,100303.35
2023-04-23T01:28:52.335Z,100301.12
2023-04-23T01:33:45.711Z,100300.55
2023-04-23T01:38:39.910Z,100296.45
2023-04-23T01:43:33.718Z,100300.90
2023-04-23T01:48:27.058Z,100301.52
2023-04-23T01:53:19.880Z,100299.73
2023-04-23T01:58:12.570Z,100298.32
2023-04-23T02:03:06.350Z,100295.76
2023-04-23T02:07:59.347Z,100301.30
2023-04-23T02:12:52.065Z,100300.41
2023-04-23T02:17:44.790Z,100301.70
2023-04-23T02:22:41.045Z,100296.74
2023-04-23T02:27:33.966Z,100297.27
2023-04-23T02:32:28.117Z,100298.83
2023-04-23T02:37:21.385Z,100295.93
2023-04-23T02:42:14.714Z,100295.54
2023-04-23T02:47:07.486Z,100291.41
2023-04-23T02:52:00.188Z,100290.40
2023-04-23T02:56:53.394Z,100291.34
2023-04-23T03:01:46.078Z,100296.43
2023-04-23T03:06:39.710Z,100296.14
2023-04-23T03:11:32.611Z,100298.07
2023-04-23T03:16:25.460Z,100296.52
2023-04-23T03:21:19.404Z,100296.05
2023-04-23T03:26:12.467Z,100294.01
2023-04-23T03:31:05.198Z,100293.44
2023-04-23T03:35:58.404Z,100294.27
2023-04-23T03:40:54.183Z,100288.81
2023-04-23T03:45:47.412Z,100288.11
2023-04-23T03:50:41.388Z,100291.88
2023-04-23T03:55:45.608Z,100289.00
2023-04-23T04:00:38.661Z,100290.86
2023-04-23T04:05:31.378Z,100290.70
2023-04-23T04:10:24.368Z,100290.52
2023-04-23T04:15:19.987Z,100291.84
2023-04-23T04:20:13.208Z,100289.21
2023-04-23T04:25:07.053Z,100289.90
2023-04-23T04:29:59.737Z,100288.69
2023-04-23T04:34:52.780Z,100287.86
2023-04-23T04:39:45.662Z,100283.33
2023-04-23T04:44:38.972Z,100286.58
2023-04-23T04:49:33.023Z,100288.12
2023-04-23T04:54:25.717Z,100291.23
2023-04-23T04:59:18.408Z,100290.42
2023-04-23T05:04:12.448Z,100291.46
2023-04-23T05:09:05.390Z,100288.75
2023-04-23T05:13:58.219Z,100293.80
2023-04-23T05:18:51.657Z,100290.95
2023-04-23T05:23:44.355Z,100290.39
2023-04-23T05:28:38.035Z,100286.94
2023-04-23T05:33:36.442Z,100280.55
2023-04-23T05:38:35.588Z,100280.60
2023-04-23T05:43:28.333Z,100282.99
2023-04-23T05:48:21.001Z,100280.31
2023-04-23T05:53:13.898Z,100275.70
2023-04-23T05:58:06.596Z,100274.93
2023-04-23T06:02:59.538Z,100264.92
2023-04-23T06:07:53.236Z,100264.03
2023-04-23T06:12:45.984Z,100262.15
2023-04-23T06:17:38.943Z,100258.52
2023-04-23T06:22:31.923Z,100258.86
2023-04-23T06:27:24.637Z,100259.94
2023-04-23T06:32:20.412Z,100251.64
2023-04-23T06:37:13.316Z,100248.90
2023-04-23T06:42:05.991Z,100248.60
2023-04-23T06:47:01.887Z,100242.38
2023-04-23T06:51:57.503Z,100233.55
2023-04-23T06:56:51.183Z,100229.44
2023-04-23T07:01:44.106Z,100216.36
2023-04-23T07:06:36.909Z,100215.77
2023-04-23T07:11:31.916Z,100221.14
2023-04-23T07:16:25.892Z,100219.73
2023-04-23T07:21:18.739Z,100214.48
2023-04-23T07:26:12.037Z,100212.90
2023-04-23T07:31:04.906Z,100210.83
2023-04-23T07:35:57.597Z,100209.33
2023-04-23T07:40:50.422Z,100205.87
2023-04-23T07:45:43.195Z,100199.11
2023-04-23T07:50:36.033Z,100197.29
2023-04-23T07:55:29.102Z,100197.36
2023-04-23T08:00:21.888Z,100192.04
2023-04-23T08:05:14.823Z,100189.83
2023-04-23T08:10:08.125Z,100193.59
2023-04-23T08:15:01.719Z,100189.98
2023-04-23T08:20:02.258Z,100188.30
2023-04-23T08:24:55.014Z,100184.03
2023-04-23T08:29:47.850Z,100178.92
2023-04-23T08:34:40.720Z,100170.41
2023-04-23T08:39:36.153Z,100176.23
2023-04-23T08:44:29.580Z,100174.35
2023-04-23T08:49:22.561Z,100165.55
2023-04-23T08:54:20.744Z,100165.61
2023-04-23T08:59:13.700Z,100161.95
2023-04-23T09:04:10.376Z,100156.15
2023-04-23T09:09:05.204Z,100158.31
2023-04-23T09:13:58.716Z,100152.09
2023-04-23T09:18:52.769Z,100149.73
2023-04-23T09:23:45.697Z,100147.09
2023-04-23T09:28:41.491Z,100141.75
2023-04-23T09:33:36.539Z,100141.80
2023-04-23T09:38:29.519Z,100140.65
2023-04-23T09:43:22.478Z,100136.23
2023-04-23T09:48:15.293Z,100132.52
2023-04-23T09:53:08.894Z,100126.16
2023-04-23T09:58:02.343Z,100126.42
2023-04-23T10:02:55.698Z,100121.55
2023-04-23T10:07:49.638Z,100112.33
2023-04-23T10:12:54.233Z,100110.84
2023-04-23T10:17:49.611Z,100105.57
2023-04-23T10:22:45.440Z,100094.80
2023-04-23T10:27:54.445Z,100086.80
2023-04-23T10:32:49.616Z,100092.82
2023-04-23T10:37:43.132Z,100082.55
2023-04-23T10:42:36.406Z,100075.38
2023-04-23T10:47:29.188Z,100069.93
2023-04-23T10:52:25.121Z,100065.82
2023-04-23T10:57:19.377Z,100065.84
2023-04-23T11:02:13.375Z,100057.13
2023-04-23T11:07:10.396Z,100048.61
2023-04-23T11:12:03.819Z,100044.80
2023-04-23T11:16:56.832Z,100042.86
2023-04-23T11:21:59.887Z,100041.88
2023-04-23T11:26:55.519Z,100037.17
2023-04-23T11:32:01.419Z,100031.61
2023-04-23T11:36:56.917Z,100024.79
2023-04-23T11:41:50.327Z,100027.83
2023-04-23T11:46:43.098Z,100032.64
2023-04-23T11:51:36.598Z,100019.95
2023-04-23T11:56:31.455Z,100015.02
2023-04-23T12:01:24.425Z,100012.33
2023-04-23T12:06:19.199Z,100013.92
2023-04-23T12:11:13.285Z,100008.48
2023-04-23T12:16:06.308Z,100007.15
2023-04-23T12:21:08.236Z,99999.52
2023-04-23T12:26:00.959Z,100001.55
2023-04-23T12:30:53.705Z,99993.96
2023-04-23T12:35:48.266Z,99988.42
2023-04-23T12:40:41.674Z,99976.41
2023-04-23T12:45:38.245Z,99970.54
2023-04-23T12:50:31.368Z,99971.04
2023-04-23T12:55:24.143Z,99971.08
2023-04-23T13:00:17.598Z,99962.05
2023-04-23T13:05:10.436Z,99959.77
2023-04-23T13:10:03.284Z,99948.53
2023-04-23T13:14:56.100Z,99946.34
2023-04-23T13:19:48.806Z,99940.09
2023-04-23T13:24:41.484Z,99928.02
2023-04-23T13:29:34.234Z,99923.05
2023-04-23T13:34:26.915Z,99915.73
2023-04-23T13:39:20.559Z,99917.87
2023-04-23T13:44:14.113Z,99910.57
2023-04-23T13:49:07.444Z,99908.99
2023-04-23T13:54:00.130Z,99899.81
2023-04-23T13:58:53.125Z,99888.23
2023-04-23T14:03:47.378Z,99884.81
2023-04-23T14:08:40.191Z,99876.13
2023-04-23T14:13:34.074Z,99872.36
2023-04-23T14:18:27.433Z,99872.33
2023-04-23T14:23:26.650Z,99866.43
2023-04-23T14:28:25.453Z,99861.73
2023-04-23T14:33:18.161Z,99861.48
2023-04-23T14:38:10.896Z,99859.55
2023-04-23T14:43:14.464Z,99856.62
2023-04-23T14:48:08.453Z,99857.59
2023-04-23T14:53:03.496Z,99853.52
2023-04-23T14:57:56.394Z,99854.79
2023-04-23T15:02:49.281Z,99849.05
2023-04-23T15:07:42.164Z,99847.81
2023-04-23T15:12:39.711Z,99845.81
2023-04-23T15:17:33.345Z,99842.77
2023-04-23T15:22:26.307Z,99832.20
2023-04-23T15:27:19.063Z,99833.34
2023-04-23T15:32:12.233Z,99831.66
2023-04-23T15:37:04.982Z,99832.96
2023-04-23T15:41:58.301Z,99829.58
2023-04-23T15:46:51.019Z,99821.23
2023-04-23T15:51:44.081Z,99817.70
2023-04-23T15:56:37.760Z,99813.61
2023-04-23T16:01:31.198Z,99806.64
2023-04-23T16:06:24.059Z,99806.61
2023-04-23T16:11:16.840Z,99802.42
2023-04-23T16:16:10.556Z,99805.96
2023-04-23T16:21:03.453Z,99804.02
2023-04-23T16:25:57.278Z,99806.66
2023-04-23T16:30:51.055Z,99803.88
2023-04-23T16:35:43.960Z,99802.36
2023-04-23T16:40:36.713Z,99797.55
2023-04-23T16:45:29.425Z,99798.57
2023-04-23T16:50:23.136Z,99799.33
2023-04-23T16:55:16.767Z,99790.42
2023-04-23T17:00:10.581Z,99787.13
2023-04-23T17:05:03.386Z,99791.91
2023-04-23T17:09:56.166Z,99794.25
2023-04-23T17:14:48.922Z,99787.80
2023-04-23T17:19:41.938Z,99792.77
2023-04-23T17:24:35.945Z,99785.84
2023-04-23T17:29:29.998Z,99783.91
2023-04-23T17:34:22.932Z,99782.31
2023-04-23T17:39:19.963Z,99790.61
2023-04-23T17:44:12.685Z,99784.27
2023-04-23T17:49:05.350Z,99784.44
2023-04-23T17:53:59.740Z,99784.28
2023-04-23T17:58:53.153Z,99781.95
2023-04-23T18:03:48.418Z,99779.67
2023-04-23T18:08:42.855Z,99782.55
2023-04-23T18:13:38.797Z,99789.77
2023-04-23T18:18:32.663Z,99790.66
2023-04-23T18:23:26.313Z,99791.50
2023-04-23T18:28:19.023Z,99793.20
2023-04-23T18:33:27.522Z,99796.60
2023-04-23T18:38:31.838Z,99795.58
2023-04-23T18:43:25.952Z,99793.28
2023-04-23T18:48:34.254Z,99797.02
2023-04-23T18:53:26.943Z,99791.29
2023-04-23T18:58:20.077Z,99795.42
2023-04-23T19:03:25.355Z,99795.18
2023-04-23T19:08:19.921Z,99796.11
2023-04-23T19:13:12.646Z,99796.51
2023-04-23T19:18:06.205Z,99796.02
2023-04-23T19:22:58.984Z,99790.96
2023-04-23T19:27:52.104Z,99792.36
2023-04-23T19:32:44.979Z,99788.02
2023-04-23T19:37:37.713Z,99785.41
2023-04-23T19:42:32.303Z,99782.09
2023-04-23T19:47:25.004Z,99780.50
2023-04-23T19:52:19.535Z,99780.98
2023-04-23T19:57:12.420Z,99781.65
2023-04-23T20:02:05.100Z,99783.51
2023-04-23T20:06:57.781Z,99779.30
2023-04-23T20:11:50.590Z,99778.13
2023-04-23T20:16:43.636Z,99773.17
2023-04-23T20:21:37.005Z,99773.25
2023-04-23T20:26:29.796Z,99775.61
2023-04-23T20:31:22.564Z,99772.39
2023-04-23T20:36:16.118Z,99769.00
2023-04-23T20:41:11.082Z,99769.26
2023-04-23T20:46:03.880Z,99767.60
2023-04-23T20:50:57.359Z,99766.99
2023-04-23T20:55:50.109Z,99770.36
2023-04-23T21:00:42.902Z,99773.17
2023-04-23T21:05:35.650Z,99767.80
2023-04-23T21:10:28.841Z,99767.50
2023-04-23T21:15:21.585Z,99763.70
2023-04-23T21:20:14.706Z,99761.98
2023-04-23T21:25:07.753Z,99757.31
2023-04-23T21:30:01.903Z,99752.65
2023-04-23T21:34:54.606Z,99748.68
2023-04-23T21:39:47.751Z,99754.41
2023-04-23T21:44:41.022Z,99758.42
2023-04-23T21:49:33.935Z,99758.77
2023-04-23T21:54:26.690Z,99761.57
2023-04-23T21:59:20.246Z,99757.60
2023-04-23T22:04:13.422Z,99755.52
2023-04-23T22:09:07.560Z,99753.59
2023-04-23T22:14:00.576Z,99760.20
2023-04-23T22:18:53.773Z,99774.77
2023-04-23T22:23:46.440Z,99788.30
2023-04-23T22:28:39.236Z,99787.09
2023-04-23T22:33:31.935Z,99784.14
2023-04-23T22:38:25.585Z,99782.58
2023-04-23T22:43:18.249Z,99770.27
2023-04-23T22:48:11.665Z,99764.89
2023-04-23T22:53:04.373Z,99764.37
2023-04-23T22:57:57.159Z,99758.29
2023-04-23T23:02:50.002Z,99759.66
2023-04-23T23:07:42.814Z,99756.52
2023-04-23T23:12:36.649Z,99750.11
2023-04-23T23:17:29.735Z,99740.91
2023-04-23T23:22:22.433Z,99734.33
2023-04-23T23:27:15.208Z,99729.95
2023-04-23T23:32:07.923Z,99724.38
2023-04-23T23:37:00.678Z,99722.12
2023-04-23T23:41:53.345Z,99720.02
2023-04-23T23:46:46.103Z,99715.34
2023-04-23T23:51:38.892Z,99711.69
2023-04-23T23:56:31.641Z,99705.08
